Lake Harbour, Canada
Current Conditions -  °F | °C
As of 11:00 PM on Sunday 21 Dec 2014 (Local Time) from CYFB Reporting Station
Light Snow Light Snow  
Wind Chill:   Ceiling: 3000
Heat Index:   Visibility: 3mi
Dew Point: -4°   Wind: 0mph
Humidity: 85%   Direction: NA
Pressure: 30.1"   Gusts: NA
Location:  62.85°N, 69.89°W
Report Text: CYFB 220400Z 00000KT 3SM -SN VV030 M18/M20 A3010 RMK SN8 VIS VRB 2-4 /S01/ SLP197
Loading
Personal Weather Stations






























Interactive Weather Map New forecast layout! Learn more

10-Day Weather Forecast

Advertisements
Track Severe Weather on mobile